sensor_id;sensor_type;location;lat;lon;timestamp;pressure;altitude;pressure_sealevel;temperature;humidity
69535;BME280;56754;51.568;5.048;2023-02-19T00:00:02;101792.22;;;14.37;66.82
69535;BME280;56754;51.568;5.048;2023-02-19T00:02:28;101802.81;;;14.33;68.08
69535;BME280;56754;51.568;5.048;2023-02-19T00:04:53;101794.25;;;14.31;67.50
69535;BME280;56754;51.568;5.048;2023-02-19T00:07:18;101801.53;;;14.31;67.26
69535;BME280;56754;51.568;5.048;2023-02-19T00:09:44;101799.47;;;14.28;66.99
69535;BME280;56754;51.568;5.048;2023-02-19T00:12:10;101803.09;;;14.23;66.91
69535;BME280;56754;51.568;5.048;2023-02-19T00:14:35;101801.81;;;14.21;67.40
69535;BME280;56754;51.568;5.048;2023-02-19T00:17:00;101802.09;;;14.19;67.48
69535;BME280;56754;51.568;5.048;2023-02-19T00:19:26;101812.88;;;14.19;67.54
69535;BME280;56754;51.568;5.048;2023-02-19T00:21:53;101803.72;;;14.20;68.59
69535;BME280;56754;51.568;5.048;2023-02-19T00:24:18;101799.75;;;14.18;66.78
69535;BME280;56754;51.568;5.048;2023-02-19T00:26:44;101804.13;;;14.14;67.17
69535;BME280;56754;51.568;5.048;2023-02-19T00:29:28;101810.63;;;14.13;66.76
69535;BME280;56754;51.568;5.048;2023-02-19T00:31:53;101805.56;;;14.11;67.47
69535;BME280;56754;51.568;5.048;2023-02-19T00:34:19;101803.97;;;14.10;68.26
69535;BME280;56754;51.568;5.048;2023-02-19T00:36:44;101810.13;;;14.10;67.55
69535;BME280;56754;51.568;5.048;2023-02-19T00:39:14;101809.34;;;14.10;67.52
69535;BME280;56754;51.568;5.048;2023-02-19T00:41:39;101813.16;;;14.09;67.06
69535;BME280;56754;51.568;5.048;2023-02-19T00:44:06;101808.88;;;14.08;68.38
69535;BME280;56754;51.568;5.048;2023-02-19T00:46:38;101813.44;;;14.07;67.91
69535;BME280;56754;51.568;5.048;2023-02-19T00:49:05;101811.88;;;14.06;68.54
69535;BME280;56754;51.568;5.048;2023-02-19T00:51:33;101804.09;;;14.05;67.44
69535;BME280;56754;51.568;5.048;2023-02-19T00:53:59;101812.16;;;14.05;68.62
69535;BME280;56754;51.568;5.048;2023-02-19T00:56:25;101811.38;;;14.04;67.81
69535;BME280;56754;51.568;5.048;2023-02-19T00:58:51;101817.84;;;14.03;68.46
69535;BME280;56754;51.568;5.048;2023-02-19T01:01:17;101822.44;;;14.03;68.52
69535;BME280;56754;51.568;5.048;2023-02-19T01:03:43;101828.91;;;14.02;68.28
69535;BME280;56754;51.568;5.048;2023-02-19T01:06:10;101831.59;;;14.02;68.02
69535;BME280;56754;51.568;5.048;2023-02-19T01:08:37;101838.69;;;13.98;67.01
69535;BME280;56754;51.568;5.048;2023-02-19T01:11:04;101834.72;;;13.95;67.20
69535;BME280;56754;51.568;5.048;2023-02-19T01:13:30;101840.09;;;13.95;67.68
69535;BME280;56754;51.568;5.048;2023-02-19T01:16:07;101843.72;;;13.91;67.24
69535;BME280;56754;51.568;5.048;2023-02-19T01:18:34;101850.19;;;13.89;67.82
69535;BME280;56754;51.568;5.048;2023-02-19T01:21:07;101841.66;;;13.87;67.03
69535;BME280;56754;51.568;5.048;2023-02-19T01:23:33;101840.34;;;13.85;66.97
69535;BME280;56754;51.568;5.048;2023-02-19T01:25:58;101837.16;;;13.83;67.12
69535;BME280;56754;51.568;5.048;2023-02-19T01:28:23;101838.56;;;13.80;67.61
69535;BME280;56754;51.568;5.048;2023-02-19T01:30:49;101837.00;;;13.79;67.35
69535;BME280;56754;51.568;5.048;2023-02-19T01:33:14;101840.28;;;13.76;66.11
69535;BME280;56754;51.568;5.048;2023-02-19T01:35:39;101838.69;;;13.75;67.44
69535;BME280;56754;51.568;5.048;2023-02-19T01:38:05;101845.19;;;13.74;67.87
69535;BME280;56754;51.568;5.048;2023-02-19T01:40:30;101839.00;;;13.74;67.15
69535;BME280;56754;51.568;5.048;2023-02-19T01:42:55;101857.31;;;13.72;67.36
69535;BME280;56754;51.568;5.048;2023-02-19T01:45:31;101856.03;;;13.69;66.59
69535;BME280;56754;51.568;5.048;2023-02-19T01:48:05;101848.28;;;13.68;67.42
69535;BME280;56754;51.568;5.048;2023-02-19T01:50:34;101852.88;;;13.67;67.22
69535;BME280;56754;51.568;5.048;2023-02-19T01:53:02;101844.31;;;13.65;66.82
69535;BME280;56754;51.568;5.048;2023-02-19T01:55:32;101839.56;;;13.62;66.58
69535;BME280;56754;51.568;5.048;2023-02-19T01:57:59;101846.03;;;13.61;67.48
69535;BME280;56754;51.568;5.048;2023-02-19T02:00:24;101835.28;;;13.61;67.70
69535;BME280;56754;51.568;5.048;2023-02-19T02:02:51;101841.75;;;13.60;68.22
69535;BME280;56754;51.568;5.048;2023-02-19T02:05:24;101839.56;;;13.62;68.96
69535;BME280;56754;51.568;5.048;2023-02-19T02:07:52;101839.56;;;13.62;67.78
69535;BME280;56754;51.568;5.048;2023-02-19T02:10:17;101843.66;;;13.59;67.83
69535;BME280;56754;51.568;5.048;2023-02-19T02:12:43;101846.66;;;13.58;67.62
69535;BME280;56754;51.568;5.048;2023-02-19T02:15:08;101846.16;;;13.56;67.63
69535;BME280;56754;51.568;5.048;2023-02-19T02:30:54;101853.81;;;13.49;67.89
69535;BME280;56754;51.568;5.048;2023-02-19T02:38:27;101859.31;;;13.43;67.94
69535;BME280;56754;51.568;5.048;2023-02-19T02:40:54;101863.09;;;13.42;68.22
69535;BME280;56754;51.568;5.048;2023-02-19T02:43:21;101863.59;;;13.45;68.92
69535;BME280;56754;51.568;5.048;2023-02-19T02:45:46;101846.69;;;13.44;68.80
69535;BME280;56754;51.568;5.048;2023-02-19T02:48:20;101850.47;;;13.43;68.75
69535;BME280;56754;51.568;5.048;2023-02-19T02:53:17;101867.97;;;13.40;68.58
69535;BME280;56754;51.568;5.048;2023-02-19T02:55:46;101868.78;;;13.41;69.19
69535;BME280;56754;51.568;5.048;2023-02-19T02:58:14;101874.94;;;13.41;68.70
69535;BME280;56754;51.568;5.048;2023-02-19T03:00:42;101869.88;;;13.40;68.58
69535;BME280;56754;51.568;5.048;2023-02-19T03:03:09;101871.75;;;13.39;68.52
69535;BME280;56754;51.568;5.048;2023-02-19T03:05:34;101872.34;;;13.36;68.58
69535;BME280;56754;51.568;5.048;2023-02-19T03:08:09;101873.75;;;13.34;68.27
69535;BME280;56754;51.568;5.048;2023-02-19T03:10:54;101869.97;;;13.35;69.66
69535;BME280;56754;51.568;5.048;2023-02-19T03:13:33;101886.88;;;13.35;69.38
69535;BME280;56754;51.568;5.048;2023-02-19T03:16:09;101877.25;;;13.34;69.25
69535;BME280;56754;51.568;5.048;2023-02-19T03:18:37;101882.91;;;13.33;68.54
69535;BME280;56754;51.568;5.048;2023-02-19T03:21:06;101882.91;;;13.33;68.96
69535;BME280;56754;51.568;5.048;2023-02-19T03:23:33;101892.84;;;13.32;69.24
69535;BME280;56754;51.568;5.048;2023-02-19T03:26:00;101882.91;;;13.33;69.21
69535;BME280;56754;51.568;5.048;2023-02-19T03:28:27;101882.13;;;13.32;69.17
69535;BME280;56754;51.568;5.048;2023-02-19T03:30:56;101885.91;;;13.31;68.61
69535;BME280;56754;51.568;5.048;2023-02-19T03:33:23;101892.06;;;13.32;68.56
69535;BME280;56754;51.568;5.048;2023-02-19T03:35:59;101888.09;;;13.29;69.51
69535;BME280;56754;51.568;5.048;2023-02-19T03:41:24;101890.59;;;13.26;69.23
69535;BME280;56754;51.568;5.048;2023-02-19T03:49:17;101898.66;;;13.26;68.62
69535;BME280;56754;51.568;5.048;2023-02-19T03:51:52;101905.06;;;13.25;68.77
69535;BME280;56754;51.568;5.048;2023-02-19T03:56:59;101911.28;;;13.25;68.71
69535;BME280;56754;51.568;5.048;2023-02-19T04:02:52;101920.19;;;13.20;67.99
69535;BME280;56754;51.568;5.048;2023-02-19T04:05:28;101926.66;;;13.19;68.29
69535;BME280;56754;51.568;5.048;2023-02-19T04:07:58;101923.47;;;13.17;67.68
69535;BME280;56754;51.568;5.048;2023-02-19T04:10:25;101922.19;;;13.15;69.62
69535;BME280;56754;51.568;5.048;2023-02-19T04:12:59;101930.56;;;13.13;69.20
69535;BME280;56754;51.568;5.048;2023-02-19T04:15:29;101935.59;;;13.15;68.56
69535;BME280;56754;51.568;5.048;2023-02-19T04:18:03;101941.28;;;13.13;68.20
69535;BME280;56754;51.568;5.048;2023-02-19T04:20:34;101943.75;;;13.10;68.66
69535;BME280;56754;51.568;5.048;2023-02-19T04:23:01;101941.06;;;13.10;68.62
69535;BME280;56754;51.568;5.048;2023-02-19T04:25:27;101944.84;;;13.09;69.39
69535;BME280;56754;51.568;5.048;2023-02-19T04:27:53;101940.28;;;13.09;70.28
69535;BME280;56754;51.568;5.048;2023-02-19T04:30:20;101949.13;;;13.10;68.83
69535;BME280;56754;51.568;5.048;2023-02-19T04:32:45;101955.31;;;13.10;69.92
69535;BME280;56754;51.568;5.048;2023-02-19T04:35:10;101951.00;;;13.09;69.35
69535;BME280;56754;51.568;5.048;2023-02-19T04:37:36;101962.84;;;13.08;69.42
69535;BME280;56754;51.568;5.048;2023-02-19T04:40:01;101955.59;;;13.09;69.27
69535;BME280;56754;51.568;5.048;2023-02-19T04:42:26;101962.06;;;13.08;69.32
69535;BME280;56754;51.568;5.048;2023-02-19T04:44:52;101969.81;;;13.09;69.19
69535;BME280;56754;51.568;5.048;2023-02-19T04:47:17;101974.88;;;13.11;68.86
69535;BME280;56754;51.568;5.048;2023-02-19T04:49:43;101970.59;;;13.10;69.15
69535;BME280;56754;51.568;5.048;2023-02-19T04:52:09;101981.31;;;13.10;69.29
69535;BME280;56754;51.568;5.048;2023-02-19T04:54:34;101975.47;;;13.08;68.95
69535;BME280;56754;51.568;5.048;2023-02-19T04:56:59;101983.03;;;13.06;69.27
69535;BME280;56754;51.568;5.048;2023-02-19T04:59:25;101991.88;;;13.06;69.50
69535;BME280;56754;51.568;5.048;2023-02-19T05:01:50;102003.41;;;13.07;69.34
69535;BME280;56754;51.568;5.048;2023-02-19T05:04:15;101999.91;;;13.06;69.00
69535;BME280;56754;51.568;5.048;2023-02-19T05:06:41;102010.97;;;13.05;69.98
69535;BME280;56754;51.568;5.048;2023-02-19T05:09:06;102010.97;;;13.05;69.31
69535;BME280;56754;51.568;5.048;2023-02-19T05:11:31;102018.50;;;13.03;69.69
69535;BME280;56754;51.568;5.048;2023-02-19T05:13:57;102019.63;;;13.02;69.25
69535;BME280;56754;51.568;5.048;2023-02-19T05:16:22;102020.41;;;13.02;69.78
69535;BME280;56754;51.568;5.048;2023-02-19T05:18:47;102019.63;;;13.02;69.64
69535;BME280;56754;51.568;5.048;2023-02-19T05:21:13;102026.06;;;13.01;69.59
69535;BME280;56754;51.568;5.048;2023-02-19T05:23:39;102029.84;;;13.00;69.48
69535;BME280;56754;51.568;5.048;2023-02-19T05:26:15;102030.63;;;13.00;69.63
69535;BME280;56754;51.568;5.048;2023-02-19T05:28:41;102021.47;;;13.01;70.20
69535;BME280;56754;51.568;5.048;2023-02-19T05:31:07;102023.38;;;13.01;70.15
69535;BME280;56754;51.568;5.048;2023-02-19T05:33:33;102037.56;;;13.01;70.03
69535;BME280;56754;51.568;5.048;2023-02-19T05:36:12;102044.84;;;13.01;69.49
69535;BME280;56754;51.568;5.048;2023-02-19T05:38:38;102044.63;;;12.97;69.97
69535;BME280;56754;51.568;5.048;2023-02-19T05:41:19;102029.63;;;12.96;69.49
69535;BME280;56754;51.568;5.048;2023-02-19T05:43:46;102036.38;;;12.93;70.09
69535;BME280;56754;51.568;5.048;2023-02-19T05:46:13;102047.13;;;12.93;70.07
69535;BME280;56754;51.568;5.048;2023-02-19T05:48:39;102044.72;;;12.92;70.08
69535;BME280;56754;51.568;5.048;2023-02-19T05:51:09;102044.72;;;12.92;69.89
69535;BME280;56754;51.568;5.048;2023-02-19T05:53:36;102040.97;;;12.93;70.23
69535;BME280;56754;51.568;5.048;2023-02-19T05:56:01;102049.28;;;12.91;70.30
69535;BME280;56754;51.568;5.048;2023-02-19T05:58:27;102052.28;;;12.90;69.95
69535;BME280;56754;51.568;5.048;2023-02-19T06:00:53;102051.47;;;12.89;69.31
69535;BME280;56754;51.568;5.048;2023-02-19T06:03:18;102033.28;;;12.86;69.76
69535;BME280;56754;51.568;5.048;2023-02-19T06:05:44;102036.56;;;12.83;69.81
69535;BME280;56754;51.568;5.048;2023-02-19T06:08:14;102041.91;;;12.83;69.88
69535;BME280;56754;51.568;5.048;2023-02-19T06:10:40;102037.66;;;12.82;69.66
69535;BME280;56754;51.568;5.048;2023-02-19T06:13:07;102036.06;;;12.81;69.91
69535;BME280;56754;51.568;5.048;2023-02-19T06:15:33;102046.28;;;12.79;70.09
69535;BME280;56754;51.568;5.048;2023-02-19T06:17:58;102053.25;;;12.80;70.77
69535;BME280;56754;51.568;5.048;2023-02-19T06:20:23;102055.91;;;12.80;69.88
69535;BME280;56754;51.568;5.048;2023-02-19T06:22:49;102070.13;;;12.81;70.08
69535;BME280;56754;51.568;5.048;2023-02-19T06:25:15;102066.66;;;12.80;69.51
69535;BME280;56754;51.568;5.048;2023-02-19T06:27:40;102076.59;;;12.80;69.67
69535;BME280;56754;51.568;5.048;2023-02-19T06:30:06;102075.00;;;12.79;69.31
69535;BME280;56754;51.568;5.048;2023-02-19T06:32:31;102067.75;;;12.79;70.07
69535;BME280;56754;51.568;5.048;2023-02-19T06:34:57;102078.47;;;12.79;69.48
69535;BME280;56754;51.568;5.048;2023-02-19T06:37:22;102083.34;;;12.77;69.96
69535;BME280;56754;51.568;5.048;2023-02-19T06:39:47;102088.69;;;12.77;70.09
69535;BME280;56754;51.568;5.048;2023-02-19T06:42:12;102095.97;;;12.77;70.36
69535;BME280;56754;51.568;5.048;2023-02-19T06:44:38;102097.84;;;12.76;69.34
69535;BME280;56754;51.568;5.048;2023-02-19T06:47:03;102105.09;;;12.75;69.76
69535;BME280;56754;51.568;5.048;2023-02-19T06:49:28;102100.53;;;12.76;69.68
69535;BME280;56754;51.568;5.048;2023-02-19T06:51:54;102107.00;;;12.75;70.25
69535;BME280;56754;51.568;5.048;2023-02-19T06:54:19;102098.66;;;12.77;69.72
69535;BME280;56754;51.568;5.048;2023-02-19T06:56:44;102104.00;;;12.77;69.91
69535;BME280;56754;51.568;5.048;2023-02-19T06:59:12;102110.16;;;12.77;69.93
69535;BME280;56754;51.568;5.048;2023-02-19T07:01:39;102110.16;;;12.77;69.87
69535;BME280;56754;51.568;5.048;2023-02-19T07:04:05;102111.78;;;12.78;70.07
69535;BME280;56754;51.568;5.048;2023-02-19T07:06:31;102116.03;;;12.79;69.99
69535;BME280;56754;51.568;5.048;2023-02-19T07:08:57;102121.41;;;12.79;69.87
69535;BME280;56754;51.568;5.048;2023-02-19T07:11:24;102111.47;;;12.80;69.86
69535;BME280;56754;51.568;5.048;2023-02-19T07:13:58;102117.94;;;12.79;70.17
69535;BME280;56754;51.568;5.048;2023-02-19T07:16:24;102123.00;;;12.80;69.93
69535;BME280;56754;51.568;5.048;2023-02-19T07:18:50;102131.84;;;12.81;69.53
69535;BME280;56754;51.568;5.048;2023-02-19T07:21:16;102137.19;;;12.81;69.82
69535;BME280;56754;51.568;5.048;2023-02-19T07:23:42;102140.72;;;12.81;69.57
69535;BME280;56754;51.568;5.048;2023-02-19T07:26:09;102145.56;;;12.79;69.93
69535;BME280;56754;51.568;5.048;2023-02-19T07:28:35;102150.91;;;12.79;69.47
69535;BME280;56754;51.568;5.048;2023-02-19T07:31:02;102151.19;;;12.78;69.63
69535;BME280;56754;51.568;5.048;2023-02-19T07:33:28;102156.88;;;12.76;69.67
69535;BME280;56754;51.568;5.048;2023-02-19T07:35:54;102159.56;;;12.76;70.24
69535;BME280;56754;51.568;5.048;2023-02-19T07:38:20;102161.28;;;12.86;70.67
69535;BME280;56754;51.568;5.048;2023-02-19T07:40:54;102168.81;;;13.03;70.03
69535;BME280;56754;51.568;5.048;2023-02-19T07:43:20;102183.47;;;13.10;69.23
69535;BME280;56754;51.568;5.048;2023-02-19T07:45:45;102177.78;;;13.12;68.92
69535;BME280;56754;51.568;5.048;2023-02-19T07:48:11;102190.63;;;13.15;69.01
69535;BME280;56754;51.568;5.048;2023-02-19T07:50:37;102202.09;;;13.20;69.26
69535;BME280;56754;51.568;5.048;2023-02-19T07:53:02;102210.31;;;13.29;69.35
69535;BME280;56754;51.568;5.048;2023-02-19T07:55:28;102216.06;;;13.36;69.30
69535;BME280;56754;51.568;5.048;2023-02-19T07:57:53;102216.00;;;13.41;69.11
69535;BME280;56754;51.568;5.048;2023-02-19T08:00:18;102217.81;;;13.46;68.92
69535;BME280;56754;51.568;5.048;2023-02-19T08:02:44;102217.44;;;13.53;68.65
69535;BME280;56754;51.568;5.048;2023-02-19T08:05:09;102229.97;;;13.57;67.92
69535;BME280;56754;51.568;5.048;2023-02-19T08:07:35;102229.97;;;13.57;67.96
69535;BME280;56754;51.568;5.048;2023-02-19T08:10:01;102233.47;;;13.58;67.84
69535;BME280;56754;51.568;5.048;2023-02-19T08:12:27;102229.69;;;13.59;67.83
69535;BME280;56754;51.568;5.048;2023-02-19T08:14:52;102229.09;;;13.62;67.75
69535;BME280;56754;51.568;5.048;2023-02-19T08:17:17;102237.66;;;13.64;67.72
69535;BME280;56754;51.568;5.048;2023-02-19T08:19:43;102242.72;;;13.65;67.85
69535;BME280;56754;51.568;5.048;2023-02-19T08:22:08;102243.25;;;13.68;68.11
69535;BME280;56754;51.568;5.048;2023-02-19T08:24:33;102253.66;;;13.69;68.30
69535;BME280;56754;51.568;5.048;2023-02-19T08:26:58;102258.47;;;13.72;68.30
69535;BME280;56754;51.568;5.048;2023-02-19T08:29:24;102266.44;;;13.77;68.62
69535;BME280;56754;51.568;5.048;2023-02-19T08:31:50;102263.06;;;13.85;68.16
69535;BME280;56754;51.568;5.048;2023-02-19T08:34:15;102265.97;;;13.89;67.57
69535;BME280;56754;51.568;5.048;2023-02-19T08:36:40;102256.50;;;13.92;67.54
69535;BME280;56754;51.568;5.048;2023-02-19T08:39:06;102260.00;;;13.92;67.38
69535;BME280;56754;51.568;5.048;2023-02-19T08:41:31;102259.19;;;13.92;67.51
69535;BME280;56754;51.568;5.048;2023-02-19T08:43:56;102255.41;;;13.93;67.50
69535;BME280;56754;51.568;5.048;2023-02-19T08:46:21;102255.41;;;13.93;67.33
69535;BME280;56754;51.568;5.048;2023-02-19T08:48:47;102250.03;;;13.93;67.41
69535;BME280;56754;51.568;5.048;2023-02-19T08:51:12;102258.09;;;13.93;67.42
69535;BME280;56754;51.568;5.048;2023-02-19T08:53:39;102259.47;;;13.90;66.98
69535;BME280;56754;51.568;5.048;2023-02-19T08:56:09;102270.53;;;13.88;67.28
69535;BME280;56754;51.568;5.048;2023-02-19T08:58:35;102273.50;;;13.87;67.28
69535;BME280;56754;51.568;5.048;2023-02-19T09:01:01;102277.91;;;13.83;67.21
69535;BME280;56754;51.568;5.048;2023-02-19T09:03:26;102283.59;;;13.81;67.22
69535;BME280;56754;51.568;5.048;2023-02-19T09:05:51;102279.88;;;13.77;66.42
69535;BME280;56754;51.568;5.048;2023-02-19T09:08:17;102275.59;;;13.76;67.29
69535;BME280;56754;51.568;5.048;2023-02-19T09:10:42;102283.66;;;13.76;67.14
69535;BME280;56754;51.568;5.048;2023-02-19T09:13:07;102280.19;;;13.76;67.00
69535;BME280;56754;51.568;5.048;2023-02-19T09:15:33;102283.94;;;13.75;67.23
69535;BME280;56754;51.568;5.048;2023-02-19T09:17:58;102288.25;;;13.76;67.42
69535;BME280;56754;51.568;5.048;2023-02-19T09:20:24;102296.31;;;13.76;67.39
69535;BME280;56754;51.568;5.048;2023-02-19T09:22:49;102287.41;;;13.75;67.20
69535;BME280;56754;51.568;5.048;2023-02-19T09:25:14;102277.78;;;13.74;67.13
69535;BME280;56754;51.568;5.048;2023-02-19T09:27:40;102268.91;;;13.74;67.29
69535;BME280;56754;51.568;5.048;2023-02-19T09:30:05;102279.66;;;13.74;67.27
69535;BME280;56754;51.568;5.048;2023-02-19T09:32:32;102283.75;;;13.71;66.48
69535;BME280;56754;51.568;5.048;2023-02-19T09:34:57;102293.97;;;13.69;67.07
69535;BME280;56754;51.568;5.048;2023-02-19T09:37:26;102300.16;;;13.70;66.78
69535;BME280;56754;51.568;5.048;2023-02-19T09:39:52;102304.72;;;13.69;66.82
69535;BME280;56754;51.568;5.048;2023-02-19T09:42:20;102302.84;;;13.70;67.02
69535;BME280;56754;51.568;5.048;2023-02-19T09:44:49;102299.06;;;13.71;67.16
69535;BME280;56754;51.568;5.048;2023-02-19T09:47:26;102321.34;;;13.71;67.46
69535;BME280;56754;51.568;5.048;2023-02-19T09:49:55;102332.09;;;13.71;66.85
69535;BME280;56754;51.568;5.048;2023-02-19T09:55:48;102329.41;;;13.71;67.19
69535;BME280;56754;51.568;5.048;2023-02-19T09:57:49;102322.16;;;13.72;67.03
69535;BME280;56754;51.568;5.048;2023-02-19T10:00:24;102336.69;;;13.71;66.75
69535;BME280;56754;51.568;5.048;2023-02-19T10:02:53;102338.28;;;13.72;66.79
69535;BME280;56754;51.568;5.048;2023-02-19T10:05:20;102352.50;;;13.72;66.73
69535;BME280;56754;51.568;5.048;2023-02-19T10:07:50;102343.16;;;13.70;66.22
69535;BME280;56754;51.568;5.048;2023-02-19T10:10:29;102354.19;;;13.68;66.38
69535;BME280;56754;51.568;5.048;2023-02-19T10:13:09;102355.56;;;13.65;66.08
69535;BME280;56754;51.568;5.048;2023-02-19T10:15:53;102362.03;;;13.64;66.41
69535;BME280;56754;51.568;5.048;2023-02-19T10:18:26;102366.31;;;13.65;66.42
69535;BME280;56754;51.568;5.048;2023-02-19T10:20:52;102371.41;;;13.67;66.50
69535;BME280;56754;51.568;5.048;2023-02-19T10:23:18;102380.53;;;13.66;65.84
69535;BME280;56754;51.568;5.048;2023-02-19T10:25:50;102384.34;;;13.65;65.98
69535;BME280;56754;51.568;5.048;2023-02-19T10:28:17;102396.66;;;13.66;66.00
69535;BME280;56754;51.568;5.048;2023-02-19T10:30:50;102409.03;;;13.67;66.36
69535;BME280;56754;51.568;5.048;2023-02-19T10:33:17;102403.66;;;13.67;66.09
69535;BME280;56754;51.568;5.048;2023-02-19T10:36:03;102403.66;;;13.67;66.21
69535;BME280;56754;51.568;5.048;2023-02-19T10:38:35;102411.72;;;13.67;66.29
69535;BME280;56754;51.568;5.048;2023-02-19T10:41:14;102414.88;;;13.69;66.35
69535;BME280;56754;51.568;5.048;2023-02-19T10:43:44;102415.72;;;13.70;66.12
69535;BME280;56754;51.568;5.048;2023-02-19T10:46:21;102415.19;;;13.68;65.70
69535;BME280;56754;51.568;5.048;2023-02-19T10:48:56;102407.13;;;13.68;65.73
69535;BME280;56754;51.568;5.048;2023-02-19T10:51:34;102419.78;;;13.67;66.50
69535;BME280;56754;51.568;5.048;2023-02-19T10:54:15;102423.25;;;13.68;66.39
69535;BME280;56754;51.568;5.048;2023-02-19T10:56:41;102429.16;;;13.70;66.44
69535;BME280;56754;51.568;5.048;2023-02-19T10:59:27;102425.94;;;13.68;65.90
69535;BME280;56754;51.568;5.048;2023-02-19T11:01:57;102412.50;;;13.68;66.07
69535;BME280;56754;51.568;5.048;2023-02-19T11:04:25;102425.94;;;13.68;65.84
69535;BME280;56754;51.568;5.048;2023-02-19T11:06:52;102425.16;;;13.67;66.05
69535;BME280;56754;51.568;5.048;2023-02-19T11:09:41;102424.03;;;13.68;65.88
69535;BME280;56754;51.568;5.048;2023-02-19T11:12:08;102424.84;;;13.69;65.80
69535;BME280;56754;51.568;5.048;2023-02-19T11:14:34;102421.09;;;13.70;65.78
69535;BME280;56754;51.568;5.048;2023-02-19T11:17:01;102426.47;;;13.70;65.47
69535;BME280;56754;51.568;5.048;2023-02-19T11:19:41;102432.91;;;13.69;65.57
69535;BME280;56754;51.568;5.048;2023-02-19T11:22:19;102429.72;;;13.67;64.89
69535;BME280;56754;51.568;5.048;2023-02-19T11:24:51;102423.53;;;13.66;65.12
69535;BME280;56754;51.568;5.048;2023-02-19T11:27:20;102430.53;;;13.67;65.29
69535;BME280;56754;51.568;5.048;2023-02-19T11:29:45;102424.84;;;13.69;65.32
69535;BME280;56754;51.568;5.048;2023-02-19T11:32:26;102423.78;;;13.70;65.08
69535;BME280;56754;51.568;5.048;2023-02-19T11:35:21;102419.19;;;13.70;64.50
69535;BME280;56754;51.568;5.048;2023-02-19T11:40:43;102418.09;;;13.71;64.59
69535;BME280;56754;51.568;5.048;2023-02-19T12:03:42;102412.66;;;13.76;64.61
69535;BME280;56754;51.568;5.048;2023-02-19T12:11:58;102398.41;;;13.76;63.95
69535;BME280;56754;51.568;5.048;2023-02-19T12:46:06;102430.22;;;13.69;62.17
69535;BME280;56754;51.568;5.048;2023-02-19T12:51:21;102435.91;;;13.67;61.65
69535;BME280;56754;51.568;5.048;2023-02-19T12:56:23;102422.16;;;13.69;63.72
69535;BME280;56754;51.568;5.048;2023-02-19T12:59:11;102427.53;;;13.69;63.19
69535;BME280;56754;51.568;5.048;2023-02-19T13:01:45;102439.06;;;13.69;62.81
69535;BME280;56754;51.568;5.048;2023-02-19T13:04:31;102453.59;;;13.68;62.90
69535;BME280;56754;51.568;5.048;2023-02-19T13:09:53;102470.31;;;13.65;62.54
69535;BME280;56754;51.568;5.048;2023-02-19T13:12:28;102464.41;;;13.63;61.82
69535;BME280;56754;51.568;5.048;2023-02-19T13:15:00;102482.44;;;13.62;62.44
69535;BME280;56754;51.568;5.048;2023-02-19T13:20:12;102486.22;;;13.61;62.52
69535;BME280;56754;51.568;5.048;2023-02-19T13:22:45;102490.78;;;13.61;62.58
69535;BME280;56754;51.568;5.048;2023-02-19T13:25:16;102492.66;;;13.60;62.29
69535;BME280;56754;51.568;5.048;2023-02-19T13:28:31;102489.16;;;13.60;62.70
69535;BME280;56754;51.568;5.048;2023-02-19T13:30:47;102498.34;;;13.59;62.54
69535;BME280;56754;51.568;5.048;2023-02-19T13:36:08;102488.97;;;13.56;62.81
69535;BME280;56754;51.568;5.048;2023-02-19T13:38:46;102489.25;;;13.55;62.78
69535;BME280;56754;51.568;5.048;2023-02-19T13:41:31;102491.13;;;13.54;62.67
69535;BME280;56754;51.568;5.048;2023-02-19T13:44:00;102501.88;;;13.54;63.55
69535;BME280;56754;51.568;5.048;2023-02-19T13:46:35;102505.38;;;13.55;62.42
69535;BME280;56754;51.568;5.048;2023-02-19T13:51:56;102512.63;;;13.54;63.19
69535;BME280;56754;51.568;5.048;2023-02-19T13:59:51;102519.31;;;13.57;64.50
69535;BME280;56754;51.568;5.048;2023-02-19T14:14:42;102528.91;;;13.63;63.83
69535;BME280;56754;51.568;5.048;2023-02-19T14:28:13;102522.53;;;13.78;63.67
69535;BME280;56754;51.568;5.048;2023-02-19T14:30:53;102536.78;;;13.78;63.09
69535;BME280;56754;51.568;5.048;2023-02-19T14:33:42;102530.91;;;13.76;63.31
69535;BME280;56754;51.568;5.048;2023-02-19T14:36:28;102540.03;;;13.75;62.91
69535;BME280;56754;51.568;5.048;2023-02-19T14:38:57;102531.16;;;13.75;63.04
69535;BME280;56754;51.568;5.048;2023-02-19T14:41:24;102527.16;;;13.72;63.04
69535;BME280;56754;51.568;5.048;2023-02-19T14:43:53;102527.16;;;13.72;63.31
69535;BME280;56754;51.568;5.048;2023-02-19T14:46:31;102532.84;;;13.71;63.07
69535;BME280;56754;51.568;5.048;2023-02-19T14:49:10;102523.69;;;13.72;63.13
69535;BME280;56754;51.568;5.048;2023-02-19T14:51:40;102532.03;;;13.70;62.94
69535;BME280;56754;51.568;5.048;2023-02-19T14:54:17;102528.03;;;13.68;63.07
69535;BME280;56754;51.568;5.048;2023-02-19T14:56:47;102525.34;;;13.68;63.66
69535;BME280;56754;51.568;5.048;2023-02-19T14:59:24;102523.47;;;13.68;63.17
69535;BME280;56754;51.568;5.048;2023-02-19T15:02:13;102525.56;;;13.71;63.72
69535;BME280;56754;51.568;5.048;2023-02-19T15:04:39;102523.09;;;13.75;63.30
69535;BME280;56754;51.568;5.048;2023-02-19T15:07:13;102512.59;;;13.78;63.48
69535;BME280;56754;51.568;5.048;2023-02-19T15:09:43;102517.41;;;13.81;63.01
69535;BME280;56754;51.568;5.048;2023-02-19T15:12:17;102527.56;;;13.84;63.10
69535;BME280;56754;51.568;5.048;2023-02-19T15:14:45;102521.09;;;13.85;62.88
69535;BME280;56754;51.568;5.048;2023-02-19T15:17:15;102517.03;;;13.88;63.38
69535;BME280;56754;51.568;5.048;2023-02-19T15:19:43;102517.53;;;13.90;63.36
69535;BME280;56754;51.568;5.048;2023-02-19T15:22:19;102515.34;;;13.92;63.25